sensor_id;sensor_type;location;lat;lon;timestamp;pressure;altitude;pressure_sealevel;temperature;humidity
57948;BME280;43754;56.992;24.292;2023-01-31T00:01:58;98919.66;;;2.16;100.00
57948;BME280;43754;56.992;24.292;2023-01-31T00:04:29;98923.94;;;2.17;100.00
57948;BME280;43754;56.992;24.292;2023-01-31T00:07:02;98931.53;;;2.20;100.00
57948;BME280;43754;56.992;24.292;2023-01-31T00:09:33;98936.97;;;2.27;100.00
57948;BME280;43754;56.992;24.292;2023-01-31T00:12:07;98935.13;;;2.27;100.00
57948;BME280;43754;56.992;24.292;2023-01-31T00:14:39;98944.88;;;2.27;100.00
57948;BME280;43754;56.992;24.292;2023-01-31T00:17:11;98950.19;;;2.27;100.00
57948;BME280;43754;56.992;24.292;2023-01-31T00:19:43;98948.22;;;2.21;100.00
57948;BME280;43754;56.992;24.292;2023-01-31T00:22:15;98956.66;;;2.16;100.00
57948;BME280;43754;56.992;24.292;2023-01-31T00:24:47;98957.66;;;2.15;100.00
57948;BME280;43754;56.992;24.292;2023-01-31T00:27:20;98961.28;;;2.14;100.00
57948;BME280;43754;56.992;24.292;2023-01-31T00:29:52;98970.03;;;2.15;100.00
57948;BME280;43754;56.992;24.292;2023-01-31T00:32:24;98972.69;;;2.15;100.00
57948;BME280;43754;56.992;24.292;2023-01-31T00:34:57;98978.63;;;2.17;100.00
57948;BME280;43754;56.992;24.292;2023-01-31T00:37:29;98985.91;;;2.15;100.00
57948;BME280;43754;56.992;24.292;2023-01-31T00:40:01;99000.25;;;2.20;100.00
57948;BME280;43754;56.992;24.292;2023-01-31T00:42:36;98999.09;;;2.23;100.00
57948;BME280;43754;56.992;24.292;2023-01-31T00:45:10;99001.56;;;2.24;100.00
57948;BME280;43754;56.992;24.292;2023-01-31T00:47:42;99008.69;;;2.24;100.00
57948;BME280;43754;56.992;24.292;2023-01-31T00:50:14;99009.81;;;2.21;100.00
57948;BME280;43754;56.992;24.292;2023-01-31T00:52:47;99019.41;;;2.22;100.00
57948;BME280;43754;56.992;24.292;2023-01-31T00:55:19;99029.47;;;2.27;100.00
57948;BME280;43754;56.992;24.292;2023-01-31T00:57:54;99036.94;;;2.23;100.00
57948;BME280;43754;56.992;24.292;2023-01-31T01:00:26;99023.72;;;2.15;100.00
57948;BME280;43754;56.992;24.292;2023-01-31T01:02:58;99027.84;;;2.18;100.00
57948;BME280;43754;56.992;24.292;2023-01-31T01:05:30;99043.19;;;2.22;100.00
57948;BME280;43754;56.992;24.292;2023-01-31T01:08:02;99041.22;;;2.24;100.00
57948;BME280;43754;56.992;24.292;2023-01-31T01:10:34;99056.41;;;2.30;100.00
57948;BME280;43754;56.992;24.292;2023-01-31T01:13:08;99048.13;;;2.25;100.00
57948;BME280;43754;56.992;24.292;2023-01-31T01:15:40;99051.31;;;2.21;100.00
57948;BME280;43754;56.992;24.292;2023-01-31T01:18:12;99067.31;;;2.19;100.00
57948;BME280;43754;56.992;24.292;2023-01-31T01:20:44;99073.44;;;2.20;100.00
57948;BME280;43754;56.992;24.292;2023-01-31T01:23:16;99078.53;;;2.21;100.00
57948;BME280;43754;56.992;24.292;2023-01-31T01:25:48;99074.59;;;2.17;100.00
57948;BME280;43754;56.992;24.292;2023-01-31T01:28:22;99071.94;;;2.17;100.00
57948;BME280;43754;56.992;24.292;2023-01-31T01:30:53;99086.31;;;2.15;100.00
57948;BME280;43754;56.992;24.292;2023-01-31T01:33:25;99089.97;;;2.06;100.00
57948;BME280;43754;56.992;24.292;2023-01-31T01:35:59;99103.34;;;2.12;100.00
57948;BME280;43754;56.992;24.292;2023-01-31T01:38:33;99097.06;;;2.13;100.00
57948;BME280;43754;56.992;24.292;2023-01-31T01:41:05;99087.81;;;2.17;100.00
57948;BME280;43754;56.992;24.292;2023-01-31T01:43:43;99097.72;;;2.15;100.00
57948;BME280;43754;56.992;24.292;2023-01-31T01:46:19;99096.06;;;2.14;100.00
57948;BME280;43754;56.992;24.292;2023-01-31T01:48:58;99099.38;;;2.16;100.00
57948;BME280;43754;56.992;24.292;2023-01-31T01:51:32;99104.00;;;2.14;100.00
57948;BME280;43754;56.992;24.292;2023-01-31T01:54:08;99111.78;;;2.16;100.00
57948;BME280;43754;56.992;24.292;2023-01-31T01:56:46;99116.88;;;2.09;100.00
57948;BME280;43754;56.992;24.292;2023-01-31T01:59:28;99111.78;;;2.08;100.00
57948;BME280;43754;56.992;24.292;2023-01-31T02:02:02;99109.44;;;2.05;100.00
57948;BME280;43754;56.992;24.292;2023-01-31T02:04:37;99119.84;;;2.06;100.00
57948;BME280;43754;56.992;24.292;2023-01-31T02:07:10;99133.56;;;2.02;100.00
57948;BME280;43754;56.992;24.292;2023-01-31T02:09:46;99132.59;;;2.11;100.00
57948;BME280;43754;56.992;24.292;2023-01-31T02:12:20;99144.63;;;2.13;100.00
57948;BME280;43754;56.992;24.292;2023-01-31T02:14:53;99157.69;;;2.15;100.00
57948;BME280;43754;56.992;24.292;2023-01-31T02:17:26;99161.16;;;2.07;100.00
57948;BME280;43754;56.992;24.292;2023-01-31T02:20:09;99162.47;;;2.03;100.00
57948;BME280;43754;56.992;24.292;2023-01-31T02:22:51;99172.06;;;1.96;100.00
57948;BME280;43754;56.992;24.292;2023-01-31T02:25:47;99183.13;;;1.92;100.00
57948;BME280;43754;56.992;24.292;2023-01-31T02:28:46;99189.38;;;1.82;100.00
57948;BME280;43754;56.992;24.292;2023-01-31T02:31:43;99190.19;;;1.75;100.00
57948;BME280;43754;56.992;24.292;2023-01-31T02:34:25;99187.84;;;1.72;100.00
57948;BME280;43754;56.992;24.292;2023-01-31T02:37:08;99185.19;;;1.72;100.00
57948;BME280;43754;56.992;24.292;2023-01-31T02:39:49;99188.84;;;1.71;100.00
57948;BME280;43754;56.992;24.292;2023-01-31T02:42:31;99202.91;;;1.79;100.00
57948;BME280;43754;56.992;24.292;2023-01-31T02:45:08;99201.25;;;1.78;100.00
57948;BME280;43754;56.992;24.292;2023-01-31T02:48:08;99212.31;;;1.82;100.00
57948;BME280;43754;56.992;24.292;2023-01-31T02:51:01;99215.94;;;1.81;100.00
57948;BME280;43754;56.992;24.292;2023-01-31T02:53:41;99220.41;;;1.89;100.00
57948;BME280;43754;56.992;24.292;2023-01-31T02:56:19;99223.53;;;1.92;100.00
57948;BME280;43754;56.992;24.292;2023-01-31T02:58:57;99236.75;;;1.92;100.00
57948;BME280;43754;56.992;24.292;2023-01-31T03:01:34;99233.97;;;1.94;100.00
57948;BME280;43754;56.992;24.292;2023-01-31T03:04:08;99237.59;;;1.93;100.00
57948;BME280;43754;56.992;24.292;2023-01-31T03:06:56;99247.03;;;1.95;100.00
57948;BME280;43754;56.992;24.292;2023-01-31T03:09:39;99246.03;;;1.96;100.00
57948;BME280;43754;56.992;24.292;2023-01-31T03:12:31;99250.50;;;1.96;100.00
57948;BME280;43754;56.992;24.292;2023-01-31T03:15:25;99256.91;;;1.93;100.00
57948;BME280;43754;56.992;24.292;2023-01-31T03:18:23;99260.88;;;1.97;100.00
57948;BME280;43754;56.992;24.292;2023-01-31T03:21:01;99253.13;;;1.96;100.00
57948;BME280;43754;56.992;24.292;2023-01-31T03:23:36;99270.81;;;1.95;100.00
57948;BME280;43754;56.992;24.292;2023-01-31T03:26:10;99279.72;;;1.94;100.00
57948;BME280;43754;56.992;24.292;2023-01-31T03:28:44;99285.97;;;1.93;100.00
57948;BME280;43754;56.992;24.292;2023-01-31T03:31:19;99300.84;;;1.94;100.00
57948;BME280;43754;56.992;24.292;2023-01-31T03:33:56;99289.44;;;1.94;100.00
57948;BME280;43754;56.992;24.292;2023-01-31T03:36:37;99295.06;;;1.91;100.00
57948;BME280;43754;56.992;24.292;2023-01-31T03:39:39;99302.97;;;1.82;100.00
57948;BME280;43754;56.992;24.292;2023-01-31T03:42:18;99309.91;;;1.83;100.00
57948;BME280;43754;56.992;24.292;2023-01-31T03:44:59;99306.91;;;1.78;100.00
57948;BME280;43754;56.992;24.292;2023-01-31T03:47:35;99323.72;;;1.77;100.00
57948;BME280;43754;56.992;24.292;2023-01-31T03:50:13;99310.53;;;1.77;100.00
57948;BME280;43754;56.992;24.292;2023-01-31T03:52:51;99314.00;;;1.78;100.00
57948;BME280;43754;56.992;24.292;2023-01-31T03:55:30;99315.44;;;1.72;100.00
57948;BME280;43754;56.992;24.292;2023-01-31T03:58:05;99328.34;;;1.75;100.00
57948;BME280;43754;56.992;24.292;2023-01-31T04:00:41;99334.44;;;1.76;100.00
57948;BME280;43754;56.992;24.292;2023-01-31T04:03:19;99335.59;;;1.73;100.00
57948;BME280;43754;56.992;24.292;2023-01-31T04:05:53;99329.81;;;1.70;100.00
57948;BME280;43754;56.992;24.292;2023-01-31T04:08:26;99333.09;;;1.72;100.00
57948;BME280;43754;56.992;24.292;2023-01-31T04:11:09;99347.84;;;1.74;100.00
57948;BME280;43754;56.992;24.292;2023-01-31T04:13:43;99349.47;;;1.75;100.00
57948;BME280;43754;56.992;24.292;2023-01-31T04:16:15;99356.25;;;1.78;100.00
57948;BME280;43754;56.992;24.292;2023-01-31T04:18:47;99349.16;;;1.78;100.00
57948;BME280;43754;56.992;24.292;2023-01-31T04:21:19;99357.09;;;1.78;100.00
57948;BME280;43754;56.992;24.292;2023-01-31T04:23:51;99366.47;;;1.73;100.00
57948;BME280;43754;56.992;24.292;2023-01-31T04:26:25;99364.34;;;1.76;100.00
57948;BME280;43754;56.992;24.292;2023-01-31T04:28:57;99360.03;;;1.75;100.00
57948;BME280;43754;56.992;24.292;2023-01-31T04:31:29;99364.19;;;1.78;100.00
57948;BME280;43754;56.992;24.292;2023-01-31T04:34:02;99371.47;;;1.84;100.00
57948;BME280;43754;56.992;24.292;2023-01-31T04:36:34;99372.63;;;1.81;100.00
57948;BME280;43754;56.992;24.292;2023-01-31T04:39:08;99370.81;;;1.82;100.00
57948;BME280;43754;56.992;24.292;2023-01-31T04:41:43;99376.59;;;1.85;100.00
57948;BME280;43754;56.992;24.292;2023-01-31T04:44:15;99379.56;;;1.82;100.00
57948;BME280;43754;56.992;24.292;2023-01-31T04:46:47;99388.31;;;1.83;100.00
57948;BME280;43754;56.992;24.292;2023-01-31T04:49:19;99389.44;;;1.80;100.00
57948;BME280;43754;56.992;24.292;2023-01-31T04:51:52;99387.81;;;1.79;100.00
57948;BME280;43754;56.992;24.292;2023-01-31T04:54:24;99402.63;;;1.72;100.00
57948;BME280;43754;56.992;24.292;2023-01-31T04:56:57;99405.44;;;1.71;100.00
57948;BME280;43754;56.992;24.292;2023-01-31T04:59:29;99413.69;;;1.76;100.00
57948;BME280;43754;56.992;24.292;2023-01-31T05:02:01;99419.66;;;1.78;100.00
57948;BME280;43754;56.992;24.292;2023-01-31T05:04:33;99421.31;;;1.79;100.00
57948;BME280;43754;56.992;24.292;2023-01-31T05:07:05;99419.34;;;1.81;100.00
57948;BME280;43754;56.992;24.292;2023-01-31T05:09:37;99424.47;;;1.82;100.00
57948;BME280;43754;56.992;24.292;2023-01-31T05:12:11;99439.81;;;1.79;100.00
57948;BME280;43754;56.992;24.292;2023-01-31T05:14:43;99437.50;;;1.84;100.00
57948;BME280;43754;56.992;24.292;2023-01-31T05:17:14;99447.56;;;1.80;100.00
57948;BME280;43754;56.992;24.292;2023-01-31T05:19:46;99447.38;;;1.74;100.00
57948;BME280;43754;56.992;24.292;2023-01-31T05:22:19;99458.41;;;1.69;100.00
57948;BME280;43754;56.992;24.292;2023-01-31T05:24:53;99451.41;;;1.60;100.00
57948;BME280;43754;56.992;24.292;2023-01-31T05:27:29;99457.00;;;1.57;100.00
57948;BME280;43754;56.992;24.292;2023-01-31T05:30:03;99454.28;;;1.49;100.00
57948;BME280;43754;56.992;24.292;2023-01-31T05:32:36;99464.34;;;1.46;100.00
57948;BME280;43754;56.992;24.292;2023-01-31T05:35:08;99473.38;;;1.43;100.00
57948;BME280;43754;56.992;24.292;2023-01-31T05:37:40;99473.56;;;1.42;100.00
57948;BME280;43754;56.992;24.292;2023-01-31T05:40:15;99473.69;;;1.40;100.00
57948;BME280;43754;56.992;24.292;2023-01-31T05:42:53;99485.69;;;1.34;100.00
57948;BME280;43754;56.992;24.292;2023-01-31T05:45:26;99484.31;;;1.30;100.00
57948;BME280;43754;56.992;24.292;2023-01-31T05:47:58;99492.41;;;1.29;100.00
57948;BME280;43754;56.992;24.292;2023-01-31T05:50:30;99487.59;;;1.24;100.00
57948;BME280;43754;56.992;24.292;2023-01-31T05:53:12;99485.22;;;1.21;100.00
57948;BME280;43754;56.992;24.292;2023-01-31T05:55:44;99499.03;;;1.15;100.00
57948;BME280;43754;56.992;24.292;2023-01-31T05:58:18;99502.78;;;1.13;100.00
57948;BME280;43754;56.992;24.292;2023-01-31T06:00:54;99499.19;;;1.14;100.00
57948;BME280;43754;56.992;24.292;2023-01-31T06:03:26;99501.16;;;1.12;100.00
57948;BME280;43754;56.992;24.292;2023-01-31T06:05:58;99517.38;;;1.17;100.00
57948;BME280;43754;56.992;24.292;2023-01-31T06:08:30;99507.78;;;1.16;100.00
57948;BME280;43754;56.992;24.292;2023-01-31T06:11:03;99518.88;;;1.19;100.00
57948;BME280;43754;56.992;24.292;2023-01-31T06:13:37;99520.22;;;1.23;100.00
57948;BME280;43754;56.992;24.292;2023-01-31T06:16:10;99520.09;;;1.25;100.00
57948;BME280;43754;56.992;24.292;2023-01-31T06:18:41;99531.84;;;1.30;100.00
57948;BME280;43754;56.992;24.292;2023-01-31T06:21:13;99552.50;;;1.35;100.00
57948;BME280;43754;56.992;24.292;2023-01-31T06:23:47;99556.19;;;1.42;100.00
57948;BME280;43754;56.992;24.292;2023-01-31T06:26:19;99553.94;;;1.47;100.00
57948;BME280;43754;56.992;24.292;2023-01-31T06:28:52;99554.94;;;1.46;100.00
57948;BME280;43754;56.992;24.292;2023-01-31T06:31:24;99553.09;;;1.47;100.00
57948;BME280;43754;56.992;24.292;2023-01-31T06:33:56;99565.50;;;1.46;100.00
57948;BME280;43754;56.992;24.292;2023-01-31T06:36:30;99567.84;;;1.49;100.00
57948;BME280;43754;56.992;24.292;2023-01-31T06:39:03;99576.66;;;1.58;100.00
57948;BME280;43754;56.992;24.292;2023-01-31T06:41:35;99578.31;;;1.59;100.00
57948;BME280;43754;56.992;24.292;2023-01-31T06:44:09;99586.47;;;1.65;100.00
57948;BME280;43754;56.992;24.292;2023-01-31T06:46:41;99585.13;;;1.61;100.00
57948;BME280;43754;56.992;24.292;2023-01-31T06:49:13;99584.13;;;1.62;100.00
57948;BME280;43754;56.992;24.292;2023-01-31T06:51:45;99604.81;;;1.67;100.00
57948;BME280;43754;56.992;24.292;2023-01-31T06:54:16;99599.69;;;1.65;100.00
57948;BME280;43754;56.992;24.292;2023-01-31T06:56:48;99606.97;;;1.71;100.00
57948;BME280;43754;56.992;24.292;2023-01-31T06:59:22;99610.97;;;1.75;100.00
57948;BME280;43754;56.992;24.292;2023-01-31T07:01:54;99623.06;;;1.78;100.00
57948;BME280;43754;56.992;24.292;2023-01-31T07:04:26;99610.69;;;1.78;100.00
57948;BME280;43754;56.992;24.292;2023-01-31T07:06:58;99609.72;;;1.79;100.00
57948;BME280;43754;56.992;24.292;2023-01-31T07:09:30;99620.94;;;1.81;100.00
57948;BME280;43754;56.992;24.292;2023-01-31T07:12:03;99619.66;;;1.85;100.00
57948;BME280;43754;56.992;24.292;2023-01-31T07:14:36;99623.66;;;1.90;100.00
57948;BME280;43754;56.992;24.292;2023-01-31T07:17:08;99629.09;;;1.88;100.00
57948;BME280;43754;56.992;24.292;2023-01-31T07:19:40;99634.63;;;1.95;100.00
57948;BME280;43754;56.992;24.292;2023-01-31T07:22:12;99632.50;;;1.98;100.00
57948;BME280;43754;56.992;24.292;2023-01-31T07:24:44;99640.28;;;2.00;100.00
57948;BME280;43754;56.992;24.292;2023-01-31T07:27:16;99642.47;;;2.04;100.00
57948;BME280;43754;56.992;24.292;2023-01-31T07:29:50;99643.50;;;2.11;100.00
57948;BME280;43754;56.992;24.292;2023-01-31T07:32:22;99648.50;;;2.14;100.00
57948;BME280;43754;56.992;24.292;2023-01-31T07:34:54;99651.59;;;2.10;100.00
57948;BME280;43754;56.992;24.292;2023-01-31T07:37:26;99657.63;;;2.02;100.00
57948;BME280;43754;56.992;24.292;2023-01-31T07:39:58;99661.44;;;2.00;100.00
57948;BME280;43754;56.992;24.292;2023-01-31T07:42:30;99664.97;;;1.91;100.00
57948;BME280;43754;56.992;24.292;2023-01-31T07:45:04;99664.28;;;1.89;100.00
57948;BME280;43754;56.992;24.292;2023-01-31T07:47:57;99669.56;;;1.89;100.00
57948;BME280;43754;56.992;24.292;2023-01-31T07:50:29;99666.25;;;1.87;100.00
57948;BME280;43754;56.992;24.292;2023-01-31T07:53:01;99665.94;;;1.90;100.00
57948;BME280;43754;56.992;24.292;2023-01-31T07:55:34;99669.56;;;1.89;100.00
57948;BME280;43754;56.992;24.292;2023-01-31T07:58:06;99673.78;;;1.81;100.00
57948;BME280;43754;56.992;24.292;2023-01-31T08:00:39;99682.16;;;1.77;100.00
57948;BME280;43754;56.992;24.292;2023-01-31T08:03:30;99684.56;;;1.88;100.00
57948;BME280;43754;56.992;24.292;2023-01-31T08:06:07;99686.19;;;1.99;100.00
57948;BME280;43754;56.992;24.292;2023-01-31T08:08:42;99685.94;;;2.10;100.00
57948;BME280;43754;56.992;24.292;2023-01-31T08:11:14;99688.72;;;2.26;100.00
57948;BME280;43754;56.992;24.292;2023-01-31T08:13:46;99707.75;;;2.47;100.00
57948;BME280;43754;56.992;24.292;2023-01-31T08:16:19;99706.38;;;2.61;100.00
57948;BME280;43754;56.992;24.292;2023-01-31T08:18:52;99711.94;;;2.75;100.00
57948;BME280;43754;56.992;24.292;2023-01-31T08:21:24;99717.94;;;2.86;100.00
57948;BME280;43754;56.992;24.292;2023-01-31T08:23:56;99719.44;;;2.88;100.00
57948;BME280;43754;56.992;24.292;2023-01-31T08:26:28;99725.09;;;2.93;100.00
57948;BME280;43754;56.992;24.292;2023-01-31T08:29:00;99718.09;;;2.84;100.00
57948;BME280;43754;56.992;24.292;2023-01-31T08:31:33;99722.63;;;2.92;100.00
57948;BME280;43754;56.992;24.292;2023-01-31T08:34:06;99737.41;;;3.02;100.00
57948;BME280;43754;56.992;24.292;2023-01-31T08:36:38;99725.16;;;3.01;100.00
57948;BME280;43754;56.992;24.292;2023-01-31T08:39:10;99742.34;;;2.97;100.00
57948;BME280;43754;56.992;24.292;2023-01-31T08:41:42;99751.09;;;2.98;100.00
57948;BME280;43754;56.992;24.292;2023-01-31T08:44:15;99752.91;;;2.97;100.00
57948;BME280;43754;56.992;24.292;2023-01-31T08:46:48;99759.22;;;2.96;100.00
57948;BME280;43754;56.992;24.292;2023-01-31T08:49:20;99748.41;;;2.90;100.00
57948;BME280;43754;56.992;24.292;2023-01-31T08:51:52;99757.31;;;2.89;100.00
57948;BME280;43754;56.992;24.292;2023-01-31T08:54:24;99755.75;;;2.96;100.00
57948;BME280;43754;56.992;24.292;2023-01-31T08:56:56;99759.22;;;2.96;100.00
57948;BME280;43754;56.992;24.292;2023-01-31T08:59:28;99769.13;;;2.94;100.00
57948;BME280;43754;56.992;24.292;2023-01-31T09:02:02;99762.84;;;2.95;100.00
57948;BME280;43754;56.992;24.292;2023-01-31T09:04:34;99760.91;;;3.05;100.00
57948;BME280;43754;56.992;24.292;2023-01-31T09:07:06;99759.00;;;3.15;100.00
57948;BME280;43754;56.992;24.292;2023-01-31T09:09:38;99764.81;;;3.19;100.00
57948;BME280;43754;56.992;24.292;2023-01-31T09:12:10;99766.47;;;3.20;100.00
57948;BME280;43754;56.992;24.292;2023-01-31T09:14:42;99770.44;;;3.16;100.00
57948;BME280;43754;56.992;24.292;2023-01-31T09:17:15;99773.06;;;3.16;100.00
57948;BME280;43754;56.992;24.292;2023-01-31T09:19:47;99772.56;;;3.12;100.00
57948;BME280;43754;56.992;24.292;2023-01-31T09:22:20;99778.97;;;3.10;100.00
57948;BME280;43754;56.992;24.292;2023-01-31T09:24:53;99776.34;;;3.10;100.00
57948;BME280;43754;56.992;24.292;2023-01-31T09:27:25;99784.28;;;3.10;100.00
57948;BME280;43754;56.992;24.292;2023-01-31T09:29:57;99785.91;;;3.03;100.00
57948;BME280;43754;56.992;24.292;2023-01-31T09:32:31;99788.09;;;3.07;100.00
57948;BME280;43754;56.992;24.292;2023-01-31T09:35:04;99780.13;;;3.07;100.00
57948;BME280;43754;56.992;24.292;2023-01-31T09:37:36;99791.53;;;3.26;100.00
57948;BME280;43754;56.992;24.292;2023-01-31T09:40:16;99786.13;;;3.43;100.00
57948;BME280;43754;56.992;24.292;2023-01-31T09:42:54;99797.41;;;3.45;100.00
57948;BME280;43754;56.992;24.292;2023-01-31T09:45:30;99803.41;;;3.55;100.00
57948;BME280;43754;56.992;24.292;2023-01-31T09:48:05;99808.38;;;3.50;100.00
57948;BME280;43754;56.992;24.292;2023-01-31T09:50:41;99799.41;;;3.51;100.00
57948;BME280;43754;56.992;24.292;2023-01-31T09:53:16;99810.53;;;3.55;100.00
57948;BME280;43754;56.992;24.292;2023-01-31T09:56:03;99801.94;;;3.53;100.00
57948;BME280;43754;56.992;24.292;2023-01-31T09:58:51;99800.75;;;3.55;100.00
57948;BME280;43754;56.992;24.292;2023-01-31T10:01:30;99807.84;;;3.47;100.00
57948;BME280;43754;56.992;24.292;2023-01-31T10:04:28;99815.69;;;3.56;100.00
57948;BME280;43754;56.992;24.292;2023-01-31T10:07:12;99818.69;;;3.61;100.00
57948;BME280;43754;56.992;24.292;2023-01-31T10:09:49;99817.38;;;3.65;100.00
57948;BME280;43754;56.992;24.292;2023-01-31T10:12:31;99812.28;;;3.72;100.00
57948;BME280;43754;56.992;24.292;2023-01-31T10:15:09;99814.91;;;3.72;100.00
57948;BME280;43754;56.992;24.292;2023-01-31T10:17:47;99812.44;;;3.70;100.00
57948;BME280;43754;56.992;24.292;2023-01-31T10:20:31;99818.44;;;3.81;100.00
57948;BME280;43754;56.992;24.292;2023-01-31T10:23:11;99817.78;;;3.79;100.00
57948;BME280;43754;56.992;24.292;2023-01-31T10:25:48;99821.28;;;3.79;100.00
57948;BME280;43754;56.992;24.292;2023-01-31T10:28:24;99833.41;;;3.90;100.00
57948;BME280;43754;56.992;24.292;2023-01-31T10:31:00;99833.38;;;3.82;100.00
57948;BME280;43754;56.992;24.292;2023-01-31T10:33:44;99831.69;;;3.81;100.00
57948;BME280;43754;56.992;24.292;2023-01-31T10:36:25;99835.16;;;3.73;100.00
57948;BME280;43754;56.992;24.292;2023-01-31T10:39:03;99838.63;;;3.74;100.00
57948;BME280;43754;56.992;24.292;2023-01-31T10:41:45;99839.19;;;3.85;100.00
57948;BME280;43754;56.992;24.292;2023-01-31T10:44:26;99836.50;;;3.77;100.00
57948;BME280;43754;56.992;24.292;2023-01-31T10:46:59;99829.38;;;3.78;100.00
57948;BME280;43754;56.992;24.292;2023-01-31T10:49:31;99842.63;;;3.78;100.00
57948;BME280;43754;56.992;24.292;2023-01-31T10:52:15;99844.97;;;3.89;100.00
57948;BME280;43754;56.992;24.292;2023-01-31T10:54:54;99841.94;;;4.17;100.00
57948;BME280;43754;56.992;24.292;2023-01-31T10:57:30;99839.66;;;4.23;100.00
57948;BME280;43754;56.992;24.292;2023-01-31T11:00:04;99847.63;;;4.31;100.00
57948;BME280;43754;56.992;24.292;2023-01-31T11:02:37;99845.13;;;4.21;100.00
57948;BME280;43754;56.992;24.292;2023-01-31T11:05:14;99849.59;;;4.21;100.00
57948;BME280;43754;56.992;24.292;2023-01-31T11:07:48;99859.84;;;4.15;100.00
57948;BME280;43754;56.992;24.292;2023-01-31T11:10:23;99861.31;;;4.10;100.00
57948;BME280;43754;56.992;24.292;2023-01-31T11:12:58;99860.31;;;4.03;100.00
57948;BME280;43754;56.992;24.292;2023-01-31T11:15:37;99865.56;;;3.95;100.00
57948;BME280;43754;56.992;24.292;2023-01-31T11:18:13;99860.16;;;4.04;100.00
57948;BME280;43754;56.992;24.292;2023-01-31T11:20:48;99855.50;;;4.06;100.00
57948;BME280;43754;56.992;24.292;2023-01-31T11:23:24;99857.34;;;4.14;100.00
57948;BME280;43754;56.992;24.292;2023-01-31T11:25:58;99852.88;;;4.14;100.00
57948;BME280;43754;56.992;24.292;2023-01-31T11:28:34;99855.03;;;4.11;100.00
57948;BME280;43754;56.992;24.292;2023-01-31T11:31:17;99851.03;;;4.07;100.00
57948;BME280;43754;56.992;24.292;2023-01-31T11:33:56;99856.00;;;4.10;100.00
57948;BME280;43754;56.992;24.292;2023-01-31T11:36:31;99851.72;;;4.09;100.00
57948;BME280;43754;56.992;24.292;2023-01-31T11:39:21;99853.34;;;4.02;100.00
57948;BME280;43754;56.992;24.292;2023-01-31T11:41:54;99849.69;;;4.03;100.00
57948;BME280;43754;56.992;24.292;2023-01-31T11:44:26;99853.03;;;4.05;100.00
57948;BME280;43754;56.992;24.292;2023-01-31T11:47:02;99852.97;;;3.97;100.00
57948;BME280;43754;56.992;24.292;2023-01-31T11:49:37;99855.13;;;3.93;100.00
57948;BME280;43754;56.992;24.292;2023-01-31T11:52:13;99848.34;;;3.99;100.00
57948;BME280;43754;56.992;24.292;2023-01-31T11:54:49;99854.38;;;4.09;100.00
57948;BME280;43754;56.992;24.292;2023-01-31T11:57:24;99853.38;;;4.18;99.92
57948;BME280;43754;56.992;24.292;2023-01-31T11:59:57;99861.06;;;4.29;100.00
57948;BME280;43754;56.992;24.292;2023-01-31T12:02:34;99855.81;;;4.45;99.91
57948;BME280;43754;56.992;24.292;2023-01-31T12:05:09;99854.81;;;4.38;99.67
57948;BME280;43754;56.992;24.292;2023-01-31T12:07:45;99854.84;;;4.54;99.93
57948;BME280;43754;56.992;24.292;2023-01-31T12:10:31;99856.81;;;4.60;99.09
57948;BME280;43754;56.992;24.292;2023-01-31T12:13:12;99854.88;;;4.79;98.35
57948;BME280;43754;56.992;24.292;2023-01-31T12:15:52;99845.91;;;4.80;97.81
57948;BME280;43754;56.992;24.292;2023-01-31T12:18:54;99857.69;;;4.77;96.35
57948;BME280;43754;56.992;24.292;2023-01-31T12:21:42;99845.56;;;4.58;97.33
57948;BME280;43754;56.992;24.292;2023-01-31T12:24:29;99854.63;;;4.48;97.65
57948;BME280;43754;56.992;24.292;2023-01-31T12:27:15;99844.72;;;4.58;97.73
57948;BME280;43754;56.992;24.292;2023-01-31T12:30:15;99848.72;;;4.62;97.01
57948;BME280;43754;56.992;24.292;2023-01-31T12:33:00;99854.34;;;4.59;96.74
57948;BME280;43754;56.992;24.292;2023-01-31T12:35:46;99852.47;;;4.43;97.25
57948;BME280;43754;56.992;24.292;2023-01-31T12:38:35;99866.41;;;4.37;97.30
57948;BME280;43754;56.992;24.292;2023-01-31T12:41:20;99866.16;;;4.23;98.02
57948;BME280;43754;56.992;24.292;2023-01-31T12:44:18;99867.97;;;4.14;98.40
57948;BME280;43754;56.992;24.292;2023-01-31T12:47:03;99867.97;;;4.14;98.52
57948;BME280;43754;56.992;24.292;2023-01-31T12:49:57;99852.69;;;4.00;98.68
57948;BME280;43754;56.992;24.292;2023-01-31T12:52:39;99867.31;;;4.12;99.55
57948;BME280;43754;56.992;24.292;2023-01-31T12:55:26;99864.31;;;4.15;98.56
57948;BME280;43754;56.992;24.292;2023-01-31T12:58:10;99868.44;;;4.09;98.27
57948;BME280;43754;56.992;24.292;2023-01-31T13:00:55;99870.59;;;4.06;97.99
57948;BME280;43754;56.992;24.292;2023-01-31T13:03:37;99864.22;;;3.91;99.08
57948;BME280;43754;56.992;24.292;2023-01-31T13:06:16;99864.22;;;3.91;99.75
57948;BME280;43754;56.992;24.292;2023-01-31T13:08:53;99865.91;;;3.92;99.17
57948;BME280;43754;56.992;24.292;2023-01-31T13:11:40;99862.47;;;3.74;100.00
57948;BME280;43754;56.992;24.292;2023-01-31T13:14:19;99867.75;;;3.65;100.00
57948;BME280;43754;56.992;24.292;2023-01-31T13:16:54;99867.22;;;3.62;100.00
57948;BME280;43754;56.992;24.292;2023-01-31T13:19:33;99863.38;;;3.56;100.00
57948;BME280;43754;56.992;24.292;2023-01-31T13:22:12;99867.03;;;3.63;100.00
57948;BME280;43754;56.992;24.292;2023-01-31T13:24:47;99872.00;;;3.58;100.00
57948;BME280;43754;56.992;24.292;2023-01-31T13:27:26;99868.00;;;3.54;100.00
57948;BME280;43754;56.992;24.292;2023-01-31T13:30:02;99869.19;;;3.60;100.00
57948;BME280;43754;56.992;24.292;2023-01-31T13:32:40;99867.31;;;3.52;100.00
57948;BME280;43754;56.992;24.292;2023-01-31T13:35:21;99868.94;;;3.45;100.00
57948;BME280;43754;56.992;24.292;2023-01-31T13:37:59;99856.94;;;3.33;100.00